createdAt,value
2019-04-10T00:04:21.868Z,19.40
2019-04-10T00:09:27.961Z,17.63
2019-04-10T00:14:32.378Z,19.30
2019-04-10T00:19:36.517Z,21.27
2019-04-10T00:24:40.470Z,18.83
2019-04-10T00:29:44.704Z,18.77
2019-04-10T00:34:48.350Z,20.17
2019-04-10T00:39:52.937Z,16.93
2019-04-10T00:44:56.720Z,19.60
2019-04-10T00:50:00.379Z,20.37
2019-04-10T00:55:05.642Z,17.47
2019-04-10T01:00:10.360Z,16.27
2019-04-10T01:05:15.166Z,19.23
2019-04-10T01:10:19.888Z,17.07
2019-04-10T01:15:24.564Z,18.67
2019-04-10T01:20:29.259Z,19.40
2019-04-10T01:25:33.006Z,18.03
2019-04-10T01:30:36.667Z,21.00
2019-04-10T01:35:40.509Z,20.87
2019-04-10T01:40:44.187Z,18.30
2019-04-10T01:45:48.119Z,21.03
2019-04-10T01:50:52.823Z,20.47
2019-04-10T01:55:57.523Z,21.27
2019-04-10T02:01:06.035Z,19.73
2019-04-10T02:06:10.012Z,19.23
2019-04-10T02:11:13.790Z,18.93
2019-04-10T02:16:17.373Z,17.67
2019-04-10T02:21:21.109Z,30.90
2019-04-10T02:26:25.547Z,18.23
2019-04-10T02:31:30.604Z,16.53
2019-04-10T02:36:36.136Z,21.27
2019-04-10T02:41:39.878Z,17.93
2019-04-10T02:46:45.038Z,18.03
2019-04-10T02:51:49.815Z,19.40
2019-04-10T02:56:54.901Z,21.60
2019-04-10T03:02:00.345Z,20.37
2019-04-10T03:07:04.464Z,23.90
2019-04-10T03:12:10.305Z,19.83
2019-04-10T03:17:14.233Z,21.83
2019-04-10T03:22:18.755Z,20.23
2019-04-10T03:27:22.880Z,20.27
2019-04-10T03:32:50.268Z,18.33
2019-04-10T03:37:49.160Z,18.00
2019-04-10T03:42:53.028Z,19.23
2019-04-10T03:47:57.873Z,21.87
2019-04-10T03:53:02.150Z,20.03
2019-04-10T03:58:07.133Z,19.93
2019-04-10T04:03:10.781Z,14.60
2019-04-10T04:08:15.163Z,13.53
2019-04-10T04:13:19.561Z,14.30
2019-04-10T04:18:23.161Z,13.47
2019-04-10T04:23:27.721Z,13.73
2019-04-10T04:28:32.034Z,12.70
2019-04-10T04:33:36.161Z,13.20
2019-04-10T04:38:39.765Z,12.97
2019-04-10T04:43:44.779Z,13.97
2019-04-10T04:48:48.885Z,13.67
2019-04-10T04:53:52.483Z,15.83
2019-04-10T04:58:56.445Z,12.87
2019-04-10T05:04:00.374Z,13.90
2019-04-10T05:09:06.802Z,13.43
2019-04-10T05:14:11.055Z,14.83
2019-04-10T05:19:14.704Z,16.23
2019-04-10T05:24:18.291Z,19.40
2019-04-10T05:29:21.878Z,14.10
2019-04-10T05:34:25.785Z,13.57
2019-04-10T05:39:39.717Z,11.90
2019-04-10T05:44:36.526Z,13.43
2019-04-10T05:49:41.483Z,15.30
2019-04-10T05:54:45.703Z,13.03
2019-04-10T05:59:49.285Z,12.70
2019-04-10T06:04:53.832Z,13.27
2019-04-10T06:10:01.912Z,14.07
2019-04-10T06:15:04.343Z,12.53
2019-04-10T06:20:09.181Z,14.63
2019-04-10T06:25:15.950Z,13.13
2019-04-10T06:30:19.678Z,13.07
2019-04-10T06:35:24.030Z,14.87
2019-04-10T06:40:29.503Z,16.27
2019-04-10T06:45:33.681Z,13.37
2019-04-10T06:50:37.289Z,16.17
2019-04-10T06:55:40.952Z,16.03
2019-04-10T07:00:48.652Z,13.00
2019-04-10T07:06:03.323Z,13.07
2019-04-10T07:11:03.345Z,14.17
2019-04-10T07:16:00.600Z,14.00
2019-04-10T07:21:06.309Z,15.00
2019-04-10T07:26:10.537Z,14.70
2019-04-10T07:31:14.180Z,16.40
2019-04-10T07:36:18.220Z,15.00
2019-04-10T07:41:25.636Z,18.57
2019-04-10T07:46:28.305Z,16.93
2019-04-10T07:51:31.970Z,17.13
2019-04-10T07:56:35.545Z,21.13
2019-04-10T08:01:40.461Z,17.87
2019-04-10T08:06:44.719Z,16.83
2019-04-10T08:11:48.936Z,18.23
2019-04-10T08:16:52.713Z,15.97
2019-04-10T08:21:56.958Z,16.97
2019-04-10T08:27:01.217Z,19.23
2019-04-10T08:32:05.588Z,18.07
2019-04-10T08:37:10.226Z,16.83
2019-04-10T08:42:14.809Z,20.00
2019-04-10T08:47:19.359Z,20.53
2019-04-10T08:52:24.138Z,19.90
2019-04-10T08:57:27.838Z,18.03
2019-04-10T09:02:31.755Z,18.20
2019-04-10T09:07:35.932Z,17.63
2019-04-10T09:12:41.038Z,18.13
2019-04-10T09:17:44.841Z,15.77
2019-04-10T09:23:10.281Z,18.70
2019-04-10T09:27:53.911Z,18.33
2019-04-10T09:32:58.960Z,17.93
2019-04-10T09:38:04.158Z,19.53
2019-04-10T09:43:09.333Z,19.50
2019-04-10T09:48:13.029Z,20.40
2019-04-10T09:53:17.115Z,22.17
2019-04-10T09:58:21.799Z,21.00
2019-04-10T10:03:26.295Z,20.93
2019-04-10T10:08:31.600Z,22.07
2019-04-10T10:13:35.728Z,21.83
2019-04-10T10:18:39.399Z,23.57
2019-04-10T10:23:43.172Z,21.33
2019-04-10T10:28:47.296Z,24.60
2019-04-10T10:33:52.207Z,21.60
2019-04-10T10:39:05.854Z,23.93
2019-04-10T10:44:01.793Z,23.40
2019-04-10T10:49:06.266Z,22.97
2019-04-10T10:54:10.602Z,25.33
2019-04-10T10:59:15.426Z,20.27
2019-04-10T11:04:19.172Z,22.83
2019-04-10T11:09:23.857Z,22.20
2019-04-10T11:14:27.743Z,17.40
2019-04-10T11:19:31.563Z,17.30
2019-04-10T11:24:35.658Z,15.30
2019-04-10T11:29:39.817Z,17.80
2019-04-10T11:34:43.485Z,17.90
2019-04-10T11:39:48.158Z,16.83
2019-04-10T11:44:54.477Z,15.93
2019-04-10T11:49:59.378Z,16.60
2019-04-10T11:55:09.958Z,24.37
2019-04-10T12:00:12.032Z,34.57
2019-04-10T12:05:19.859Z,39.00
2019-04-10T12:15:28.154Z,40.27
2019-04-10T12:20:31.869Z,44.07
2019-04-10T12:25:36.567Z,40.90
2019-04-10T12:30:41.594Z,40.37
2019-04-10T12:35:45.814Z,41.87
2019-04-10T12:40:49.484Z,41.07
2019-04-10T12:45:53.362Z,42.97
2019-04-10T12:50:57.421Z,45.00
2019-04-10T12:56:01.962Z,47.87
2019-04-10T13:01:07.096Z,45.00
2019-04-10T13:06:11.656Z,45.73
2019-04-10T13:11:16.259Z,49.67
2019-04-10T13:16:20.364Z,51.17
2019-04-10T13:21:24.050Z,57.00
2019-04-10T13:26:28.100Z,51.67
2019-04-10T13:31:31.860Z,51.97
2019-04-10T13:36:35.660Z,51.93
2019-04-10T13:41:39.236Z,53.83
2019-04-10T13:46:43.315Z,58.27
2019-04-10T13:51:47.692Z,54.83
2019-04-10T13:56:51.382Z,55.57
2019-04-10T14:01:54.976Z,67.83
2019-04-10T14:06:59.778Z,64.63
2019-04-10T14:12:04.083Z,65.37
2019-04-10T14:17:08.987Z,71.27
2019-04-10T14:22:13.558Z,80.90
2019-04-10T14:27:21.149Z,67.80
2019-04-10T14:32:29.251Z,67.37
2019-04-10T14:37:33.607Z,70.20
2019-04-10T14:42:38.272Z,65.97
2019-04-10T14:47:42.068Z,77.40
2019-04-10T14:52:46.024Z,89.03
2019-04-10T14:57:50.831Z,88.80
2019-04-10T15:02:55.896Z,86.70
2019-04-10T15:07:59.697Z,84.20
2019-04-10T15:13:10.042Z,86.60
2019-04-10T15:18:09.089Z,94.20
2019-04-10T15:23:12.735Z,92.07
2019-04-10T15:28:16.325Z,96.07
2019-04-10T15:33:20.535Z,104.97
2019-04-10T15:38:24.198Z,98.17
2019-04-10T15:43:29.331Z,109.50
2019-04-10T15:48:33.625Z,102.50
2019-04-10T15:53:37.642Z,106.70
2019-04-10T15:58:41.665Z,132.03
2019-04-10T16:03:45.433Z,109.60
2019-04-10T16:08:50.270Z,102.77
2019-04-10T16:13:56.929Z,104.17
2019-04-10T16:19:20.408Z,103.57
2019-04-10T16:24:24.907Z,100.53
2019-04-10T16:29:29.884Z,100.67
2019-04-10T16:34:34.510Z,101.13
2019-04-10T16:39:38.984Z,99.93
2019-04-10T16:44:43.866Z,98.87
2019-04-10T16:49:47.527Z,98.40
2019-04-10T16:54:51.444Z,100.83
2019-04-10T16:59:55.986Z,99.30
2019-04-10T17:05:00.861Z,101.00
2019-04-10T17:10:14.121Z,103.47
2019-04-10T17:15:15.750Z,106.80
2019-04-10T17:20:20.361Z,110.47
2019-04-10T17:25:24.402Z,101.77
2019-04-10T17:30:28.089Z,101.07
2019-04-10T17:35:31.839Z,105.27
2019-04-10T17:40:43.423Z,106.70
2019-04-10T17:45:40.801Z,105.40
2019-04-10T17:50:47.962Z,100.70
2019-04-10T17:55:51.993Z,103.53
2019-04-10T18:00:57.821Z,102.67
2019-04-10T18:06:01.645Z,105.17
2019-04-10T18:11:05.917Z,101.00
2019-04-10T18:16:10.643Z,101.13
2019-04-10T18:21:14.798Z,100.50
2019-04-10T18:26:20.591Z,100.43
2019-04-10T18:31:26.482Z,99.30
2019-04-10T18:36:29.898Z,100.60
2019-04-10T18:41:33.518Z,100.60
2019-04-10T18:46:37.692Z,101.30
2019-04-10T18:51:42.457Z,99.77
2019-04-10T18:56:46.117Z,94.13
2019-04-10T19:01:57.345Z,94.93
2019-04-10T19:07:02.079Z,97.63
2019-04-10T19:12:05.910Z,97.43
2019-04-10T19:17:10.613Z,97.47
2019-04-10T19:22:15.838Z,97.37
2019-04-10T19:27:20.106Z,103.20
2019-04-10T19:32:30.043Z,94.40
2019-04-10T19:37:33.434Z,95.37
2019-04-10T19:42:37.702Z,93.63
2019-04-10T19:47:42.261Z,91.90
2019-04-10T19:52:46.791Z,92.33
2019-04-10T19:57:50.415Z,89.90
2019-04-10T20:02:55.235Z,93.87
2019-04-10T20:07:59.666Z,94.70
2019-04-10T20:13:04.678Z,92.23
2019-04-10T20:18:08.582Z,88.77
2019-04-10T20:23:12.730Z,95.20
2019-04-10T20:28:17.920Z,92.63
2019-04-10T20:33:21.525Z,94.00
2019-04-10T20:38:25.219Z,90.63
2019-04-10T20:43:30.595Z,86.73
2019-04-10T20:48:34.498Z,97.57
2019-04-10T20:53:38.089Z,95.63
2019-04-10T20:58:42.407Z,92.17
2019-04-10T21:03:46.356Z,97.60
2019-04-10T21:08:50.338Z,100.70
2019-04-10T21:13:54.487Z,96.60
2019-04-10T21:18:58.177Z,94.97
2019-04-10T21:24:03.144Z,96.40
2019-04-10T21:29:09.615Z,94.03
2019-04-10T21:34:15.782Z,95.80
2019-04-10T21:39:19.513Z,97.63
2019-04-10T21:44:24.576Z,100.30
2019-04-10T21:49:28.424Z,114.23
2019-04-10T21:54:32.016Z,96.63
2019-04-10T21:59:36.702Z,98.83
2019-04-10T22:04:41.341Z,100.60
2019-04-10T22:10:02.189Z,102.60
2019-04-10T22:15:10.725Z,96.67
2019-04-10T22:20:15.178Z,95.10
2019-04-10T22:25:19.473Z,90.57
2019-04-10T22:30:23.332Z,94.57
2019-04-10T22:35:27.868Z,97.93
2019-04-10T22:40:31.576Z,106.53
2019-04-10T22:45:36.036Z,106.27
2019-04-10T22:50:39.839Z,102.37
2019-04-10T22:55:44.442Z,101.43
2019-04-10T23:00:48.507Z,100.47
2019-04-10T23:05:53.083Z,105.10
2019-04-10T23:10:57.311Z,103.53
2019-04-10T23:16:01.989Z,101.70
2019-04-10T23:21:06.094Z,99.57
2019-04-10T23:26:11.129Z,98.60
2019-04-10T23:31:15.198Z,92.57
2019-04-10T23:36:18.825Z,98.70
2019-04-10T23:41:23.339Z,99.30
2019-04-10T23:46:27.045Z,94.60
2019-04-10T23:51:31.459Z,101.80
2019-04-10T23:56:35.714Z,94.43
